Check out our new PWSWeather beta!
PWSweather.com
Personal Weather Stations
Station Observations
WD4JKH
Forsyth, GA 31029

Forsyth, GA 31029

Lat: 33.033225, Lon: -83.927995

Elevation: 709

Station Type: Davis Vantage VUE

High Low Average
Temperature 74.0°F23.3°C 53.0°F11.7°C 62.5°F16.9°C
Dew Point 68.1°F20.1°C 33.2°F0.7°C 54.6°F12.6°C
Winds 6.3 mph 10.1 kmh Calm Calm 3.0 mph SW4.8 kmh SW
Wind Gusts 16.0 mph25.7 kmh 4.0 mph6.4 kmh 9.0 mph14.5 kmh
Humidity 96% 42% 78%
Pressure 30.20 in1022.7 mb 30.00 in1015.9 mb -
Precipitation 0.04 in1.0 mm - -
Hour Temp Dew Point Humidity Winds Wind Gusts Pressure Precip Precip Rate Daily Precip Total
12:03 AM 54.8°F12.7°C 49.8°F9.9°C 83% 2.4 mph SSE3.9 kmh SSE 8.0 mph12.9 kmh 30.05 in1017.6 mb 0.00 in0.0 mm 0.00 in0.0 mm 0.00 in0.0 mm
12:08 AM 55.0°F12.8°C 49.9°F9.9°C 83% 1.9 mph S3.1 kmh S 8.0 mph12.9 kmh 30.05 in1017.6 mb 0.00 in0.0 mm 0.00 in0.0 mm 0.00 in0.0 mm
12:13 AM 55.2°F12.9°C 49.8°F9.9°C 82% 1.9 mph S3.1 kmh S 8.0 mph12.9 kmh 30.05 in1017.6 mb 0.00 in0.0 mm 0.00 in0.0 mm 0.00 in0.0 mm
12:18 AM 55.5°F13.1°C 50.1°F10.1°C 82% 1.8 mph SE2.9 kmh SE 8.0 mph12.9 kmh 30.05 in1017.6 mb 0.00 in0.0 mm 0.00 in0.0 mm 0.00 in0.0 mm
12:23 AM 55.7°F13.2°C 50.0°F10.0°C 81% 2.3 mph S3.7 kmh S 7.0 mph11.3 kmh 30.05 in1017.6 mb 0.00 in0.0 mm 0.00 in0.0 mm 0.00 in0.0 mm
12:28 AM 55.9°F13.3°C 50.2°F10.1°C 81% 2.8 mph SSE4.5 kmh SSE 8.0 mph12.9 kmh 30.04 in1017.3 mb 0.00 in0.0 mm 0.00 in0.0 mm 0.00 in0.0 mm
12:33 AM 55.9°F13.3°C 50.2°F10.1°C 81% 1.8 mph SSW2.9 kmh SSW 8.0 mph12.9 kmh 30.04 in1017.3 mb 0.00 in0.0 mm 0.00 in0.0 mm 0.00 in0.0 mm
12:38 AM 55.9°F13.3°C 50.2°F10.1°C 81% 3.0 mph SSE4.8 kmh SSE 8.0 mph12.9 kmh 30.04 in1017.3 mb 0.00 in0.0 mm 0.00 in0.0 mm 0.00 in0.0 mm
12:43 AM 55.8°F13.2°C 50.1°F10.1°C 81% 2.5 mph S4.0 kmh S 8.0 mph12.9 kmh 30.04 in1017.3 mb 0.00 in0.0 mm 0.00 in0.0 mm 0.00 in0.0 mm
12:48 AM 55.8°F13.2°C 50.1°F10.1°C 81% 2.2 mph S3.5 kmh S 8.0 mph12.9 kmh 30.04 in1017.3 mb 0.00 in0.0 mm 0.00 in0.0 mm 0.00 in0.0 mm
12:53 AM 55.7°F13.2°C 50.0°F10.0°C 81% 2.4 mph S3.9 kmh S 8.0 mph12.9 kmh 30.03 in1016.9 mb 0.00 in0.0 mm 0.00 in0.0 mm 0.00 in0.0 mm
12:58 AM 55.7°F13.2°C 50.0°F10.0°C 81% 1.7 mph S2.7 kmh S 7.0 mph11.3 kmh 30.03 in1016.9 mb 0.00 in0.0 mm 0.00 in0.0 mm 0.00 in0.0 mm
01:03 AM 55.6°F13.1°C 50.2°F10.1°C 82% 2.2 mph SSE3.5 kmh SSE 7.0 mph11.3 kmh 30.03 in1016.9 mb 0.00 in0.0 mm 0.00 in0.0 mm 0.00 in0.0 mm
01:08 AM 55.5°F13.1°C 50.1°F10.1°C 82% 1.9 mph SSW3.1 kmh SSW 6.0 mph9.7 kmh 30.04 in1017.3 mb 0.00 in0.0 mm 0.00 in0.0 mm 0.00 in0.0 mm
01:13 AM 55.4°F13.0°C 50.0°F10.0°C 82% 2.6 mph SW4.2 kmh SW 7.0 mph11.3 kmh 30.04 in1017.3 mb 0.00 in0.0 mm 0.00 in0.0 mm 0.00 in0.0 mm
01:17 AM 55.3°F12.9°C 50.2°F10.1°C 83% 2.5 mph SSW4.0 kmh SSW 8.0 mph12.9 kmh 30.04 in1017.3 mb 0.00 in0.0 mm 0.00 in0.0 mm 0.00 in0.0 mm
01:22 AM 55.3°F12.9°C 50.2°F10.1°C 83% 1.9 mph SSW3.1 kmh SSW 8.0 mph12.9 kmh 30.04 in1017.3 mb 0.00 in0.0 mm 0.00 in0.0 mm 0.00 in0.0 mm
01:27 AM 55.4°F13.0°C 50.3°F10.2°C 83% 1.8 mph SSW2.9 kmh SSW 8.0 mph12.9 kmh 30.03 in1016.9 mb 0.00 in0.0 mm 0.00 in0.0 mm 0.00 in0.0 mm
01:32 AM 55.5°F13.1°C 50.4°F10.2°C 83% 1.9 mph SSW3.1 kmh SSW 8.0 mph12.9 kmh 30.03 in1016.9 mb 0.00 in0.0 mm 0.00 in0.0 mm 0.00 in0.0 mm
01:37 AM 55.5°F13.1°C 50.4°F10.2°C 83% 2.3 mph SSW3.7 kmh SSW 7.0 mph11.3 kmh 30.03 in1016.9 mb 0.00 in0.0 mm 0.00 in0.0 mm 0.00 in0.0 mm
01:42 AM 55.7°F13.2°C 50.6°F10.3°C 83% 1.5 mph S2.4 kmh S 5.0 mph8.0 kmh 30.03 in1016.9 mb 0.00 in0.0 mm 0.00 in0.0 mm 0.00 in0.0 mm
01:47 AM 55.8°F13.2°C 50.7°F10.4°C 83% 1.7 mph SSW2.7 kmh SSW 6.0 mph9.7 kmh 30.03 in1016.9 mb 0.00 in0.0 mm 0.00 in0.0 mm 0.00 in0.0 mm
01:52 AM 55.9°F13.3°C 50.8°F10.4°C 83% 2.1 mph SSW3.4 kmh SSW 6.0 mph9.7 kmh 30.03 in1016.9 mb 0.00 in0.0 mm 0.00 in0.0 mm 0.00 in0.0 mm
01:57 AM 56.0°F13.3°C 50.9°F10.5°C 83% 1.3 mph SSE2.1 kmh SSE 6.0 mph9.7 kmh 30.03 in1016.9 mb 0.00 in0.0 mm 0.00 in0.0 mm 0.00 in0.0 mm
02:02 AM 56.0°F13.3°C 50.9°F10.5°C 83% 1.4 mph SSW2.3 kmh SSW 6.0 mph9.7 kmh 30.04 in1017.3 mb 0.00 in0.0 mm 0.00 in0.0 mm 0.00 in0.0 mm
02:07 AM 56.0°F13.3°C 51.2°F10.7°C 84% 1.7 mph S2.7 kmh S 6.0 mph9.7 kmh 30.04 in1017.3 mb 0.00 in0.0 mm 0.00 in0.0 mm 0.00 in0.0 mm
02:12 AM 56.1°F13.4°C 51.0°F10.6°C 83% 1.3 mph SW2.1 kmh SW 4.0 mph6.4 kmh 30.04 in1017.3 mb 0.00 in0.0 mm 0.00 in0.0 mm 0.00 in0.0 mm
02:17 AM 56.1°F13.4°C 51.0°F10.6°C 83% 1.0 mph S1.6 kmh S 4.0 mph6.4 kmh 30.04 in1017.3 mb 0.00 in0.0 mm 0.00 in0.0 mm 0.00 in0.0 mm
02:22 AM 56.1°F13.4°C 51.0°F10.6°C 83% 1.5 mph SSW2.4 kmh SSW 5.0 mph8.0 kmh 30.04 in1017.3 mb 0.00 in0.0 mm 0.00 in0.0 mm 0.00 in0.0 mm
02:27 AM 56.1°F13.4°C 51.3°F10.7°C 84% 1.2 mph SSW1.9 kmh SSW 5.0 mph8.0 kmh 30.04 in1017.3 mb 0.00 in0.0 mm 0.00 in0.0 mm 0.00 in0.0 mm
02:32 AM 56.1°F13.4°C 51.3°F10.7°C 84% 1.1 mph SE1.8 kmh SE 5.0 mph8.0 kmh 30.04 in1017.3 mb 0.00 in0.0 mm 0.00 in0.0 mm 0.00 in0.0 mm
02:37 AM 56.2°F13.4°C 51.4°F10.8°C 84% 1.0 mph S1.6 kmh S 6.0 mph9.7 kmh 30.03 in1016.9 mb 0.00 in0.0 mm 0.00 in0.0 mm 0.00 in0.0 mm
02:42 AM 56.2°F13.4°C 51.4°F10.8°C 84% 1.0 mph S1.6 kmh S 6.0 mph9.7 kmh 30.03 in1016.9 mb 0.00 in0.0 mm 0.00 in0.0 mm 0.00 in0.0 mm
02:47 AM 56.2°F13.4°C 51.4°F10.8°C 84% 1.9 mph SSW3.1 kmh SSW 6.0 mph9.7 kmh 30.03 in1016.9 mb 0.00 in0.0 mm 0.00 in0.0 mm 0.00 in0.0 mm
02:52 AM 56.1°F13.4°C 51.3°F10.7°C 84% 1.6 mph S2.6 kmh S 5.0 mph8.0 kmh 30.03 in1016.9 mb 0.00 in0.0 mm 0.00 in0.0 mm 0.00 in0.0 mm
02:57 AM 56.1°F13.4°C 51.3°F10.7°C 84% 2.0 mph SSE3.2 kmh SSE 5.0 mph8.0 kmh 30.02 in1016.6 mb 0.00 in0.0 mm 0.00 in0.0 mm 0.00 in0.0 mm
03:02 AM 56.1°F13.4°C 51.3°F10.7°C 84% 1.6 mph SE2.6 kmh SE 5.0 mph8.0 kmh 30.02 in1016.6 mb 0.00 in0.0 mm 0.00 in0.0 mm 0.00 in0.0 mm
03:07 AM 56.2°F13.4°C 51.8°F11.0°C 85% 1.3 mph S2.1 kmh S 5.0 mph8.0 kmh 30.02 in1016.6 mb 0.00 in0.0 mm 0.00 in0.0 mm 0.00 in0.0 mm
03:12 AM 56.3°F13.5°C 51.8°F11.0°C 85% 1.9 mph S3.1 kmh S 5.0 mph8.0 kmh 30.01 in1016.3 mb 0.00 in0.0 mm 0.00 in0.0 mm 0.00 in0.0 mm
03:17 AM 56.4°F13.6°C 51.9°F11.1°C 85% 1.2 mph S1.9 kmh S 5.0 mph8.0 kmh 30.02 in1016.6 mb 0.00 in0.0 mm 0.00 in0.0 mm 0.00 in0.0 mm
03:22 AM 56.4°F13.6°C 51.9°F11.1°C 85% 1.5 mph SSW2.4 kmh SSW 5.0 mph8.0 kmh 30.02 in1016.6 mb 0.00 in0.0 mm 0.00 in0.0 mm 0.00 in0.0 mm
03:27 AM 56.5°F13.6°C 52.4°F11.3°C 86% 1.5 mph SSE2.4 kmh SSE 5.0 mph8.0 kmh 30.00 in1015.9 mb 0.00 in0.0 mm 0.00 in0.0 mm 0.00 in0.0 mm
03:32 AM 56.5°F13.6°C 52.4°F11.3°C 86% 1.5 mph SSW2.4 kmh SSW 6.0 mph9.7 kmh 30.00 in1015.9 mb 0.00 in0.0 mm 0.00 in0.0 mm 0.00 in0.0 mm
03:37 AM 56.6°F13.7°C 52.5°F11.4°C 86% 1.3 mph S2.1 kmh S 6.0 mph9.7 kmh 30.01 in1016.3 mb 0.00 in0.0 mm 0.00 in0.0 mm 0.00 in0.0 mm
03:42 AM 56.7°F13.7°C 52.6°F11.4°C 86% 1.7 mph S2.7 kmh S 6.0 mph9.7 kmh 30.01 in1016.3 mb 0.00 in0.0 mm 0.00 in0.0 mm 0.00 in0.0 mm
03:47 AM 56.7°F13.7°C 52.6°F11.4°C 86% 1.3 mph SW2.1 kmh SW 6.0 mph9.7 kmh 30.02 in1016.6 mb 0.00 in0.0 mm 0.00 in0.0 mm 0.00 in0.0 mm
03:52 AM 56.7°F13.7°C 52.6°F11.4°C 86% 2.2 mph SSW3.5 kmh SSW 6.0 mph9.7 kmh 30.02 in1016.6 mb 0.00 in0.0 mm 0.00 in0.0 mm 0.00 in0.0 mm
03:57 AM 56.7°F13.7°C 52.6°F11.4°C 86% 1.3 mph SW2.1 kmh SW 6.0 mph9.7 kmh 30.01 in1016.3 mb 0.00 in0.0 mm 0.00 in0.0 mm 0.00 in0.0 mm
04:02 AM 56.5°F13.6°C 52.4°F11.3°C 86% 1.0 mph SW1.6 kmh SW 6.0 mph9.7 kmh 30.01 in1016.3 mb 0.00 in0.0 mm 0.00 in0.0 mm 0.00 in0.0 mm
04:07 AM 56.5°F13.6°C 52.4°F11.3°C 86% 1.3 mph SSW2.1 kmh SSW 6.0 mph9.7 kmh 30.01 in1016.3 mb 0.00 in0.0 mm 0.00 in0.0 mm 0.00 in0.0 mm
04:12 AM 56.4°F13.6°C 52.6°F11.4°C 87% 1.7 mph SSE2.7 kmh SSE 5.0 mph8.0 kmh 30.01 in1016.3 mb 0.00 in0.0 mm 0.00 in0.0 mm 0.00 in0.0 mm
04:17 AM 56.4°F13.6°C 52.6°F11.4°C 87% 1.5 mph SW2.4 kmh SW 5.0 mph8.0 kmh 30.01 in1016.3 mb 0.00 in0.0 mm 0.00 in0.0 mm 0.00 in0.0 mm
04:22 AM 56.4°F13.6°C 52.6°F11.4°C 87% 1.6 mph SSW2.6 kmh SSW 5.0 mph8.0 kmh 30.01 in1016.3 mb 0.00 in0.0 mm 0.00 in0.0 mm 0.00 in0.0 mm
04:27 AM 56.3°F13.5°C 52.5°F11.4°C 87% 1.2 mph SSW1.9 kmh SSW 5.0 mph8.0 kmh 30.01 in1016.3 mb 0.00 in0.0 mm 0.00 in0.0 mm 0.00 in0.0 mm
04:32 AM 56.4°F13.6°C 52.6°F11.4°C 87% 1.6 mph SW2.6 kmh SW 5.0 mph8.0 kmh 30.01 in1016.3 mb 0.00 in0.0 mm 0.00 in0.0 mm 0.00 in0.0 mm
04:37 AM 56.4°F13.6°C 52.9°F11.6°C 88% 1.2 mph S1.9 kmh S 5.0 mph8.0 kmh 30.01 in1016.3 mb 0.00 in0.0 mm 0.00 in0.0 mm 0.00 in0.0 mm
04:42 AM 56.5°F13.6°C 53.0°F11.7°C 88% 1.4 mph SW2.3 kmh SW 4.0 mph6.4 kmh 30.01 in1016.3 mb 0.00 in0.0 mm 0.00 in0.0 mm 0.00 in0.0 mm
04:47 AM 56.6°F13.7°C 53.1°F11.7°C 88% 1.3 mph S2.1 kmh S 4.0 mph6.4 kmh 30.01 in1016.3 mb 0.00 in0.0 mm 0.00 in0.0 mm 0.00 in0.0 mm
04:52 AM 56.7°F13.7°C 53.5°F11.9°C 89% 1.6 mph SSW2.6 kmh SSW 5.0 mph8.0 kmh 30.01 in1016.3 mb 0.00 in0.0 mm 0.00 in0.0 mm 0.00 in0.0 mm
04:57 AM 56.8°F13.8°C 53.6°F12.0°C 89% 1.7 mph SSW2.7 kmh SSW 7.0 mph11.3 kmh 30.01 in1016.3 mb 0.00 in0.0 mm 0.00 in0.0 mm 0.00 in0.0 mm
05:02 AM 57.1°F13.9°C 53.9°F12.2°C 89% 3.6 mph SW5.8 kmh SW 8.0 mph12.9 kmh 30.01 in1016.3 mb 0.00 in0.0 mm 0.00 in0.0 mm 0.00 in0.0 mm
05:07 AM 57.5°F14.2°C 54.6°F12.6°C 90% 2.4 mph SSW3.9 kmh SSW 8.0 mph12.9 kmh 30.01 in1016.3 mb 0.00 in0.0 mm 0.00 in0.0 mm 0.00 in0.0 mm
05:12 AM 57.8°F14.3°C 54.9°F12.7°C 90% 3.4 mph SSW5.5 kmh SSW 9.0 mph14.5 kmh 30.01 in1016.3 mb 0.00 in0.0 mm 0.00 in0.0 mm 0.00 in0.0 mm
05:17 AM 58.2°F14.6°C 55.6°F13.1°C 91% 4.2 mph SW6.8 kmh SW 9.0 mph14.5 kmh 30.01 in1016.3 mb 0.00 in0.0 mm 0.00 in0.0 mm 0.00 in0.0 mm
05:22 AM 58.6°F14.8°C 55.9°F13.3°C 91% 2.6 mph SSW4.2 kmh SSW 10.0 mph16.1 kmh 30.01 in1016.3 mb 0.00 in0.0 mm 0.00 in0.0 mm 0.00 in0.0 mm
05:27 AM 58.8°F14.9°C 56.1°F13.4°C 91% 2.3 mph S3.7 kmh S 10.0 mph16.1 kmh 30.00 in1015.9 mb 0.00 in0.0 mm 0.00 in0.0 mm 0.00 in0.0 mm
05:32 AM 59.0°F15.0°C 56.3°F13.5°C 91% 4.7 mph SW7.6 kmh SW 10.0 mph16.1 kmh 30.01 in1016.3 mb 0.00 in0.0 mm 0.00 in0.0 mm 0.00 in0.0 mm
05:37 AM 59.1°F15.1°C 56.7°F13.7°C 92% 4.4 mph SW7.1 kmh SW 12.0 mph19.3 kmh 30.01 in1016.3 mb 0.00 in0.0 mm 0.00 in0.0 mm 0.00 in0.0 mm
05:42 AM 59.1°F15.1°C 56.7°F13.7°C 92% 3.1 mph SW5.0 kmh SW 12.0 mph19.3 kmh 30.01 in1016.3 mb 0.00 in0.0 mm 0.00 in0.0 mm 0.00 in0.0 mm
05:47 AM 59.1°F15.1°C 56.7°F13.7°C 92% 4.5 mph SSW7.2 kmh SSW 14.0 mph22.5 kmh 30.01 in1016.3 mb 0.00 in0.0 mm 0.00 in0.0 mm 0.00 in0.0 mm
05:52 AM 59.1°F15.1°C 56.8°F13.8°C 92% 3.3 mph SW5.3 kmh SW 14.0 mph22.5 kmh 30.01 in1016.3 mb 0.00 in0.0 mm 0.00 in0.0 mm 0.00 in0.0 mm
05:57 AM 59.2°F15.1°C 56.8°F13.8°C 92% 2.2 mph S3.5 kmh S 14.0 mph22.5 kmh 30.01 in1016.3 mb 0.00 in0.0 mm 0.00 in0.0 mm 0.00 in0.0 mm
06:02 AM 59.2°F15.1°C 56.8°F13.8°C 92% 3.2 mph SSW5.1 kmh SSW 14.0 mph22.5 kmh 30.01 in1016.3 mb 0.00 in0.0 mm 0.00 in0.0 mm 0.00 in0.0 mm
06:07 AM 59.2°F15.1°C 57.1°F13.9°C 93% 3.3 mph SSW5.3 kmh SSW 12.0 mph19.3 kmh 30.01 in1016.3 mb 0.00 in0.0 mm 0.00 in0.0 mm 0.00 in0.0 mm
06:12 AM 59.3°F15.2°C 57.2°F14.0°C 93% 4.6 mph SW7.4 kmh SW 12.0 mph19.3 kmh 30.01 in1016.3 mb 0.00 in0.0 mm 0.00 in0.0 mm 0.00 in0.0 mm
06:17 AM 59.3°F15.2°C 57.2°F14.0°C 93% 4.3 mph SSW6.9 kmh SSW 12.0 mph19.3 kmh 30.01 in1016.3 mb 0.00 in0.0 mm 0.00 in0.0 mm 0.00 in0.0 mm
06:22 AM 59.4°F15.2°C 57.0°F13.9°C 92% 3.9 mph SSW6.3 kmh SSW 11.0 mph17.7 kmh 30.02 in1016.6 mb 0.00 in0.0 mm 0.00 in0.0 mm 0.00 in0.0 mm
06:27 AM 59.5°F15.3°C 57.1°F13.9°C 92% 2.7 mph SSW4.3 kmh SSW 16.0 mph25.7 kmh 30.02 in1016.6 mb 0.00 in0.0 mm 0.00 in0.0 mm 0.00 in0.0 mm
06:32 AM 59.5°F15.3°C 57.1°F13.9°C 92% 3.6 mph S5.8 kmh S 16.0 mph25.7 kmh 30.01 in1016.3 mb 0.00 in0.0 mm 0.00 in0.0 mm 0.00 in0.0 mm
06:37 AM 59.5°F15.3°C 57.1°F13.9°C 92% 2.1 mph SSW3.4 kmh SSW 16.0 mph25.7 kmh 30.02 in1016.6 mb 0.00 in0.0 mm 0.00 in0.0 mm 0.00 in0.0 mm
06:42 AM 59.5°F15.3°C 57.1°F13.9°C 92% 3.1 mph SSW5.0 kmh SSW 16.0 mph25.7 kmh 30.02 in1016.6 mb 0.00 in0.0 mm 0.00 in0.0 mm 0.00 in0.0 mm
06:47 AM 59.6°F15.3°C 57.2°F14.0°C 92% 2.2 mph SSW3.5 kmh SSW 11.0 mph17.7 kmh 30.02 in1016.6 mb 0.00 in0.0 mm 0.00 in0.0 mm 0.00 in0.0 mm
06:52 AM 59.7°F15.4°C 57.3°F14.1°C 92% 4.3 mph SSW6.9 kmh SSW 12.0 mph19.3 kmh 30.02 in1016.6 mb 0.00 in0.0 mm 0.00 in0.0 mm 0.00 in0.0 mm
06:57 AM 59.8°F15.4°C 57.5°F14.2°C 92% 2.5 mph SSW4.0 kmh SSW 12.0 mph19.3 kmh 30.02 in1016.6 mb 0.00 in0.0 mm 0.00 in0.0 mm 0.00 in0.0 mm
07:02 AM 59.8°F15.4°C 57.5°F14.2°C 92% 2.1 mph SSW3.4 kmh SSW 12.0 mph19.3 kmh 30.02 in1016.6 mb 0.00 in0.0 mm 0.00 in0.0 mm 0.00 in0.0 mm
07:07 AM 59.8°F15.4°C 57.5°F14.2°C 92% 1.9 mph SSW3.1 kmh SSW 12.0 mph19.3 kmh 30.02 in1016.6 mb 0.00 in0.0 mm 0.00 in0.0 mm 0.00 in0.0 mm
07:12 AM 59.8°F15.4°C 57.4°F14.1°C 92% 3.6 mph SW5.8 kmh SW 10.0 mph16.1 kmh 30.02 in1016.6 mb 0.00 in0.0 mm 0.00 in0.0 mm 0.00 in0.0 mm
07:16 AM 59.7°F15.4°C 57.3°F14.1°C 92% 2.9 mph S4.7 kmh S 9.0 mph14.5 kmh 30.02 in1016.6 mb 0.00 in0.0 mm 0.00 in0.0 mm 0.00 in0.0 mm
07:21 AM 59.7°F15.4°C 57.3°F14.1°C 92% 2.2 mph SSW3.5 kmh SSW 9.0 mph14.5 kmh 30.02 in1016.6 mb 0.00 in0.0 mm 0.00 in0.0 mm 0.00 in0.0 mm
07:26 AM 59.7°F15.4°C 57.3°F14.1°C 92% 3.4 mph SSW5.5 kmh SSW 9.0 mph14.5 kmh 30.02 in1016.6 mb 0.00 in0.0 mm 0.00 in0.0 mm 0.00 in0.0 mm
07:31 AM 59.7°F15.4°C 57.3°F14.1°C 92% 2.5 mph SSW4.0 kmh SSW 9.0 mph14.5 kmh 30.03 in1016.9 mb 0.00 in0.0 mm 0.00 in0.0 mm 0.00 in0.0 mm
07:36 AM 59.7°F15.4°C 57.3°F14.1°C 92% 2.0 mph SW3.2 kmh SW 8.0 mph12.9 kmh 30.03 in1016.9 mb 0.00 in0.0 mm 0.00 in0.0 mm 0.00 in0.0 mm
07:41 AM 59.7°F15.4°C 57.4°F14.1°C 92% 4.1 mph SSW6.6 kmh SSW 11.0 mph17.7 kmh 30.03 in1016.9 mb 0.00 in0.0 mm 0.00 in0.0 mm 0.00 in0.0 mm
07:46 AM 59.6°F15.3°C 57.3°F14.1°C 92% 1.8 mph SW2.9 kmh SW 11.0 mph17.7 kmh 30.03 in1016.9 mb 0.00 in0.0 mm 0.00 in0.0 mm 0.00 in0.0 mm
07:51 AM 59.6°F15.3°C 57.6°F14.2°C 93% 2.9 mph SW4.7 kmh SW 11.0 mph17.7 kmh 30.03 in1016.9 mb 0.00 in0.0 mm 0.00 in0.0 mm 0.00 in0.0 mm
07:56 AM 59.6°F15.3°C 57.5°F14.2°C 93% 1.4 mph SW2.3 kmh SW 11.0 mph17.7 kmh 30.04 in1017.3 mb 0.00 in0.0 mm 0.00 in0.0 mm 0.00 in0.0 mm
08:01 AM 59.7°F15.4°C 57.6°F14.2°C 93% 3.2 mph SSW5.1 kmh SSW 9.0 mph14.5 kmh 30.04 in1017.3 mb 0.00 in0.0 mm 0.00 in0.0 mm 0.00 in0.0 mm
08:06 AM 59.9°F15.5°C 57.8°F14.3°C 93% 2.4 mph SW3.9 kmh SW 9.0 mph14.5 kmh 30.04 in1017.3 mb 0.00 in0.0 mm 0.00 in0.0 mm 0.00 in0.0 mm
08:11 AM 60.1°F15.6°C 58.0°F14.4°C 93% 2.1 mph S3.4 kmh S 9.0 mph14.5 kmh 30.04 in1017.3 mb 0.00 in0.0 mm 0.00 in0.0 mm 0.00 in0.0 mm
08:16 AM 60.2°F15.7°C 57.8°F14.3°C 92% 3.4 mph SW5.5 kmh SW 10.0 mph16.1 kmh 30.04 in1017.3 mb 0.00 in0.0 mm 0.00 in0.0 mm 0.00 in0.0 mm
08:21 AM 60.4°F15.8°C 58.0°F14.4°C 92% 5.6 mph SW9.0 kmh SW 14.0 mph22.5 kmh 30.05 in1017.6 mb 0.00 in0.0 mm 0.00 in0.0 mm 0.00 in0.0 mm
08:26 AM 60.6°F15.9°C 58.2°F14.6°C 92% 3.4 mph SSW5.5 kmh SSW 14.0 mph22.5 kmh 30.04 in1017.3 mb 0.00 in0.0 mm 0.00 in0.0 mm 0.00 in0.0 mm
08:31 AM 60.8°F16.0°C 58.4°F14.7°C 92% 3.4 mph SW5.5 kmh SW 14.0 mph22.5 kmh 30.04 in1017.3 mb 0.00 in0.0 mm 0.00 in0.0 mm 0.00 in0.0 mm
08:36 AM 61.0°F16.1°C 58.9°F14.9°C 93% 4.0 mph SW6.4 kmh SW 14.0 mph22.5 kmh 30.05 in1017.6 mb 0.00 in0.0 mm 0.00 in0.0 mm 0.00 in0.0 mm
08:41 AM 61.2°F16.2°C 59.1°F15.1°C 93% 3.2 mph SSW5.1 kmh SSW 14.0 mph22.5 kmh 30.05 in1017.6 mb 0.00 in0.0 mm 0.00 in0.0 mm 0.00 in0.0 mm
08:46 AM 61.3°F16.3°C 59.2°F15.1°C 93% 4.9 mph SSW7.9 kmh SSW 14.0 mph22.5 kmh 30.05 in1017.6 mb 0.00 in0.0 mm 0.00 in0.0 mm 0.00 in0.0 mm
08:51 AM 61.4°F16.3°C 59.3°F15.2°C 93% 4.1 mph SW6.6 kmh SW 14.0 mph22.5 kmh 30.05 in1017.6 mb 0.00 in0.0 mm 0.00 in0.0 mm 0.00 in0.0 mm
08:56 AM 61.6°F16.4°C 59.8°F15.4°C 94% 2.8 mph SW4.5 kmh SW 14.0 mph22.5 kmh 30.05 in1017.6 mb 0.00 in0.0 mm 0.00 in0.0 mm 0.00 in0.0 mm
09:01 AM 61.7°F16.5°C 59.9°F15.5°C 94% 4.8 mph SW7.7 kmh SW 12.0 mph19.3 kmh 30.06 in1017.9 mb 0.00 in0.0 mm 0.00 in0.0 mm 0.00 in0.0 mm
09:06 AM 61.8°F16.6°C 60.0°F15.6°C 94% 3.1 mph SW5.0 kmh SW 12.0 mph19.3 kmh 30.06 in1017.9 mb 0.00 in0.0 mm 0.00 in0.0 mm 0.00 in0.0 mm
09:11 AM 61.9°F16.6°C 60.1°F15.6°C 94% 3.4 mph SW5.5 kmh SW 12.0 mph19.3 kmh 30.06 in1017.9 mb 0.00 in0.0 mm 0.00 in0.0 mm 0.00 in0.0 mm
09:16 AM 62.0°F16.7°C 60.2°F15.7°C 94% 4.7 mph SW7.6 kmh SW 12.0 mph19.3 kmh 30.06 in1017.9 mb 0.00 in0.0 mm 0.00 in0.0 mm 0.00 in0.0 mm
09:21 AM 62.1°F16.7°C 60.3°F15.7°C 94% 2.7 mph SW4.3 kmh SW 12.0 mph19.3 kmh 30.06 in1017.9 mb 0.00 in0.0 mm 0.00 in0.0 mm 0.00 in0.0 mm
09:26 AM 62.2°F16.8°C 60.4°F15.8°C 94% 3.1 mph SSW5.0 kmh SSW 12.0 mph19.3 kmh 30.06 in1017.9 mb 0.00 in0.0 mm 0.00 in0.0 mm 0.00 in0.0 mm
09:31 AM 62.3°F16.8°C 60.8°F16.0°C 95% 2.5 mph SSW4.0 kmh SSW 12.0 mph19.3 kmh 30.06 in1017.9 mb 0.00 in0.0 mm 0.00 in0.0 mm 0.00 in0.0 mm
09:36 AM 62.4°F16.9°C 60.9°F16.1°C 95% 3.9 mph SW6.3 kmh SW 12.0 mph19.3 kmh 30.06 in1017.9 mb 0.00 in0.0 mm 0.00 in0.0 mm 0.00 in0.0 mm
09:41 AM 62.4°F16.9°C 60.9°F16.1°C 95% 3.0 mph SW4.8 kmh SW 12.0 mph19.3 kmh 30.06 in1017.9 mb 0.00 in0.0 mm 0.00 in0.0 mm 0.00 in0.0 mm
09:46 AM 62.5°F16.9°C 61.0°F16.1°C 95% 2.8 mph SSW4.5 kmh SSW 12.0 mph19.3 kmh 30.06 in1017.9 mb 0.00 in0.0 mm 0.00 in0.0 mm 0.00 in0.0 mm
09:51 AM 62.5°F16.9°C 61.0°F16.1°C 95% 4.0 mph SW6.4 kmh SW 10.0 mph16.1 kmh 30.06 in1017.9 mb 0.00 in0.0 mm 0.00 in0.0 mm 0.00 in0.0 mm
09:56 AM 62.6°F17.0°C 61.4°F16.3°C 96% 3.0 mph SSW4.8 kmh SSW 10.0 mph16.1 kmh 30.06 in1017.9 mb 0.00 in0.0 mm 0.00 in0.0 mm 0.00 in0.0 mm
10:01 AM 62.6°F17.0°C 61.4°F16.3°C 96% 4.4 mph SW7.1 kmh SW 12.0 mph19.3 kmh 30.06 in1017.9 mb 0.00 in0.0 mm 0.00 in0.0 mm 0.00 in0.0 mm
10:06 AM 62.8°F17.1°C 61.6°F16.4°C 96% 4.8 mph SW7.7 kmh SW 12.0 mph19.3 kmh 30.07 in1018.3 mb 0.00 in0.0 mm 0.00 in0.0 mm 0.00 in0.0 mm
10:11 AM 62.9°F17.2°C 61.7°F16.5°C 96% 1.9 mph SW3.1 kmh SW 12.0 mph19.3 kmh 30.08 in1018.6 mb 0.00 in0.0 mm 0.00 in0.0 mm 0.00 in0.0 mm
10:16 AM 62.9°F17.2°C 61.7°F16.5°C 96% 4.9 mph NW7.9 kmh NW 12.0 mph19.3 kmh 30.09 in1019.0 mb 0.00 in0.0 mm 0.00 in0.0 mm 0.00 in0.0 mm
10:21 AM 62.9°F17.2°C 61.7°F16.5°C 96% 3.0 mph NW4.8 kmh NW 12.0 mph19.3 kmh 30.10 in1019.3 mb 0.00 in0.0 mm 0.00 in0.0 mm 0.00 in0.0 mm
10:26 AM 62.9°F17.2°C 61.7°F16.5°C 96% 4.0 mph WNW6.4 kmh WNW 9.0 mph14.5 kmh 30.10 in1019.3 mb 0.03 in0.8 mm 0.36 in9.1 mm 0.03 in0.8 mm
10:31 AM 63.0°F17.2°C 61.8°F16.6°C 96% 1.3 mph WNW2.1 kmh WNW 9.0 mph14.5 kmh 30.10 in1019.3 mb 0.04 in1.0 mm 0.12 in3.0 mm 0.04 in1.0 mm
10:36 AM 63.0°F17.2°C 61.8°F16.6°C 96% 1.3 mph W2.1 kmh W 7.0 mph11.3 kmh 30.10 in1019.3 mb 0.04 in1.0 mm 0.00 in0.0 mm 0.04 in1.0 mm
10:41 AM 63.1°F17.3°C 61.9°F16.6°C 96% 2.5 mph WSW4.0 kmh WSW 7.0 mph11.3 kmh 30.10 in1019.3 mb 0.04 in1.0 mm 0.00 in0.0 mm 0.04 in1.0 mm
10:46 AM 63.2°F17.3°C 62.0°F16.7°C 96% 1.4 mph SW2.3 kmh SW 4.0 mph6.4 kmh 30.10 in1019.3 mb 0.04 in1.0 mm 0.00 in0.0 mm 0.04 in1.0 mm
10:51 AM 63.3°F17.4°C 62.1°F16.7°C 96% Calm Calm 4.0 mph6.4 kmh 30.09 in1019.0 mb 0.04 in1.0 mm 0.00 in0.0 mm 0.04 in1.0 mm
10:56 AM 63.4°F17.4°C 62.2°F16.8°C 96% 2.4 mph W3.9 kmh W 5.0 mph8.0 kmh 30.10 in1019.3 mb 0.04 in1.0 mm 0.00 in0.0 mm 0.04 in1.0 mm
11:01 AM 63.4°F17.4°C 62.2°F16.8°C 96% 1.6 mph WSW2.6 kmh WSW 5.0 mph8.0 kmh 30.10 in1019.3 mb 0.04 in1.0 mm 0.00 in0.0 mm 0.04 in1.0 mm
11:06 AM 63.6°F17.6°C 62.4°F16.9°C 96% 1.5 mph SW2.4 kmh SW 5.0 mph8.0 kmh 30.09 in1019.0 mb 0.04 in1.0 mm 0.00 in0.0 mm 0.04 in1.0 mm
11:11 AM 63.6°F17.6°C 62.4°F16.9°C 96% 1.9 mph SW3.1 kmh SW 5.0 mph8.0 kmh 30.09 in1019.0 mb 0.04 in1.0 mm 0.00 in0.0 mm 0.04 in1.0 mm
11:16 AM 63.8°F17.7°C 62.6°F17.0°C 96% 1.8 mph SW2.9 kmh SW 5.0 mph8.0 kmh 30.08 in1018.6 mb 0.04 in1.0 mm 0.00 in0.0 mm 0.04 in1.0 mm
11:21 AM 63.9°F17.7°C 62.7°F17.1°C 96% 1.4 mph SW2.3 kmh SW 5.0 mph8.0 kmh 30.08 in1018.6 mb 0.04 in1.0 mm 0.00 in0.0 mm 0.04 in1.0 mm
11:26 AM 64.2°F17.9°C 63.0°F17.2°C 96% 1.2 mph SW1.9 kmh SW 7.0 mph11.3 kmh 30.09 in1019.0 mb 0.01 in0.3 mm 0.00 in0.0 mm 0.04 in1.0 mm
11:31 AM 64.2°F17.9°C 63.0°F17.2°C 96% 2.8 mph SW4.5 kmh SW 7.0 mph11.3 kmh 30.09 in1019.0 mb 0.00 in0.0 mm 0.00 in0.0 mm 0.04 in1.0 mm
11:36 AM 64.4°F18.0°C 63.2°F17.3°C 96% 3.1 mph SW5.0 kmh SW 7.0 mph11.3 kmh 30.09 in1019.0 mb 0.00 in0.0 mm 0.00 in0.0 mm 0.04 in1.0 mm
11:41 AM 64.6°F18.1°C 63.4°F17.4°C 96% 3.0 mph SSW4.8 kmh SSW 10.0 mph16.1 kmh 30.09 in1019.0 mb 0.00 in0.0 mm 0.00 in0.0 mm 0.04 in1.0 mm
11:46 AM 64.8°F18.2°C 63.6°F17.6°C 96% 2.2 mph SW3.5 kmh SW 10.0 mph16.1 kmh 30.08 in1018.6 mb 0.00 in0.0 mm 0.00 in0.0 mm 0.04 in1.0 mm
11:51 AM 65.0°F18.3°C 63.8°F17.7°C 96% 2.4 mph SW3.9 kmh SW 10.0 mph16.1 kmh 30.08 in1018.6 mb 0.00 in0.0 mm 0.00 in0.0 mm 0.04 in1.0 mm
11:56 AM 65.2°F18.4°C 64.0°F17.8°C 96% 2.9 mph SW4.7 kmh SW 10.0 mph16.1 kmh 30.08 in1018.6 mb 0.00 in0.0 mm 0.00 in0.0 mm 0.04 in1.0 mm
12:01 PM 65.6°F18.7°C 64.4°F18.0°C 96% 2.7 mph SSW4.3 kmh SSW 9.0 mph14.5 kmh 30.07 in1018.3 mb 0.00 in0.0 mm 0.00 in0.0 mm 0.04 in1.0 mm
12:06 PM 66.0°F18.9°C 64.8°F18.2°C 96% 2.7 mph SW4.3 kmh SW 9.0 mph14.5 kmh 30.08 in1018.6 mb 0.00 in0.0 mm 0.00 in0.0 mm 0.04 in1.0 mm
12:11 PM 66.2°F19.0°C 65.0°F18.3°C 96% 4.6 mph SW7.4 kmh SW 10.0 mph16.1 kmh 30.07 in1018.3 mb 0.00 in0.0 mm 0.00 in0.0 mm 0.04 in1.0 mm
12:16 PM 66.3°F19.1°C 65.1°F18.4°C 96% 2.5 mph SW4.0 kmh SW 10.0 mph16.1 kmh 30.07 in1018.3 mb 0.00 in0.0 mm 0.00 in0.0 mm 0.04 in1.0 mm
12:21 PM 66.4°F19.1°C 64.9°F18.3°C 95% 3.7 mph SSW6.0 kmh SSW 10.0 mph16.1 kmh 30.07 in1018.3 mb 0.00 in0.0 mm 0.00 in0.0 mm 0.04 in1.0 mm
12:26 PM 66.5°F19.2°C 65.0°F18.3°C 95% 2.8 mph SW4.5 kmh SW 10.0 mph16.1 kmh 30.07 in1018.3 mb 0.00 in0.0 mm 0.00 in0.0 mm 0.04 in1.0 mm
12:31 PM 66.7°F19.3°C 65.2°F18.4°C 95% 2.7 mph SSW4.3 kmh SSW 10.0 mph16.1 kmh 30.06 in1017.9 mb 0.00 in0.0 mm 0.00 in0.0 mm 0.04 in1.0 mm
12:36 PM 66.8°F19.3°C 65.3°F18.5°C 95% 1.7 mph SSW2.7 kmh SSW 10.0 mph16.1 kmh 30.06 in1017.9 mb 0.00 in0.0 mm 0.00 in0.0 mm 0.04 in1.0 mm
12:41 PM 67.0°F19.4°C 65.5°F18.6°C 95% 1.7 mph SW2.7 kmh SW 10.0 mph16.1 kmh 30.06 in1017.9 mb 0.00 in0.0 mm 0.00 in0.0 mm 0.04 in1.0 mm
12:46 PM 67.2°F19.6°C 65.7°F18.7°C 95% 3.6 mph SW5.8 kmh SW 10.0 mph16.1 kmh 30.06 in1017.9 mb 0.00 in0.0 mm 0.00 in0.0 mm 0.04 in1.0 mm
12:51 PM 67.4°F19.7°C 65.9°F18.8°C 95% 2.8 mph SW4.5 kmh SW 10.0 mph16.1 kmh 30.06 in1017.9 mb 0.00 in0.0 mm 0.00 in0.0 mm 0.04 in1.0 mm
12:56 PM 67.6°F19.8°C 66.1°F18.9°C 95% 2.1 mph SW3.4 kmh SW 8.0 mph12.9 kmh 30.06 in1017.9 mb 0.00 in0.0 mm 0.00 in0.0 mm 0.04 in1.0 mm
01:01 PM 67.7°F19.8°C 66.2°F19.0°C 95% 1.7 mph SW2.7 kmh SW 8.0 mph12.9 kmh 30.06 in1017.9 mb 0.00 in0.0 mm 0.00 in0.0 mm 0.04 in1.0 mm
01:06 PM 67.9°F19.9°C 66.4°F19.1°C 95% 3.0 mph SW4.8 kmh SW 8.0 mph12.9 kmh 30.05 in1017.6 mb 0.00 in0.0 mm 0.00 in0.0 mm 0.04 in1.0 mm
01:11 PM 68.1°F20.1°C 66.3°F19.1°C 94% 2.8 mph SW4.5 kmh SW 10.0 mph16.1 kmh 30.06 in1017.9 mb 0.00 in0.0 mm 0.00 in0.0 mm 0.04 in1.0 mm
01:15 PM 68.5°F20.3°C 66.7°F19.3°C 94% 4.8 mph WSW7.7 kmh WSW 13.0 mph20.9 kmh 30.06 in1017.9 mb 0.00 in0.0 mm 0.00 in0.0 mm 0.04 in1.0 mm
01:20 PM 68.9°F20.5°C 67.1°F19.5°C 94% 5.1 mph SW8.2 kmh SW 13.0 mph20.9 kmh 30.05 in1017.6 mb 0.00 in0.0 mm 0.00 in0.0 mm 0.04 in1.0 mm
01:25 PM 69.3°F20.7°C 67.2°F19.6°C 93% 2.8 mph SW4.5 kmh SW 13.0 mph20.9 kmh 30.05 in1017.6 mb 0.00 in0.0 mm 0.00 in0.0 mm 0.04 in1.0 mm
01:30 PM 69.6°F20.9°C 67.2°F19.6°C 92% 5.8 mph SW9.3 kmh SW 13.0 mph20.9 kmh 30.05 in1017.6 mb 0.00 in0.0 mm 0.00 in0.0 mm 0.04 in1.0 mm
01:35 PM 70.0°F21.1°C 67.6°F19.8°C 92% 3.1 mph SW5.0 kmh SW 13.0 mph20.9 kmh 30.05 in1017.6 mb 0.00 in0.0 mm 0.00 in0.0 mm 0.04 in1.0 mm
01:40 PM 70.5°F21.4°C 67.7°F19.8°C 91% 6.3 mph SW10.1 kmh SW 13.0 mph20.9 kmh 30.05 in1017.6 mb 0.00 in0.0 mm 0.00 in0.0 mm 0.04 in1.0 mm
01:45 PM 70.8°F21.6°C 68.0°F20.0°C 91% 2.4 mph SW3.9 kmh SW 13.0 mph20.9 kmh 30.05 in1017.6 mb 0.00 in0.0 mm 0.00 in0.0 mm 0.04 in1.0 mm
01:50 PM 71.1°F21.7°C 67.7°F19.8°C 89% 5.2 mph SW8.4 kmh SW 12.0 mph19.3 kmh 30.05 in1017.6 mb 0.00 in0.0 mm 0.00 in0.0 mm 0.04 in1.0 mm
01:55 PM 71.3°F21.8°C 67.9°F19.9°C 89% 4.8 mph SW7.7 kmh SW 12.0 mph19.3 kmh 30.05 in1017.6 mb 0.00 in0.0 mm 0.00 in0.0 mm 0.04 in1.0 mm
02:00 PM 71.5°F21.9°C 67.8°F19.9°C 88% 5.2 mph SW8.4 kmh SW 12.0 mph19.3 kmh 30.04 in1017.3 mb 0.00 in0.0 mm 0.00 in0.0 mm 0.04 in1.0 mm
02:05 PM 71.6°F22.0°C 67.9°F19.9°C 88% 2.3 mph SW3.7 kmh SW 12.0 mph19.3 kmh 30.04 in1017.3 mb 0.00 in0.0 mm 0.00 in0.0 mm 0.04 in1.0 mm
02:10 PM 71.8°F22.1°C 68.1°F20.1°C 88% 3.5 mph WSW5.6 kmh WSW 10.0 mph16.1 kmh 30.04 in1017.3 mb 0.00 in0.0 mm 0.00 in0.0 mm 0.04 in1.0 mm
02:15 PM 71.9°F22.2°C 67.8°F19.9°C 87% 3.8 mph WSW6.1 kmh WSW 10.0 mph16.1 kmh 30.04 in1017.3 mb 0.00 in0.0 mm 0.00 in0.0 mm 0.04 in1.0 mm
02:20 PM 72.0°F22.2°C 67.9°F19.9°C 87% 1.6 mph SSW2.6 kmh SSW 9.0 mph14.5 kmh 30.04 in1017.3 mb 0.00 in0.0 mm 0.00 in0.0 mm 0.04 in1.0 mm
02:25 PM 72.1°F22.3°C 67.7°F19.8°C 86% 4.6 mph WSW7.4 kmh WSW 13.0 mph20.9 kmh 30.04 in1017.3 mb 0.00 in0.0 mm 0.00 in0.0 mm 0.04 in1.0 mm
02:30 PM 72.1°F22.3°C 67.7°F19.8°C 86% 4.5 mph WSW7.2 kmh WSW 13.0 mph20.9 kmh 30.05 in1017.6 mb 0.00 in0.0 mm 0.00 in0.0 mm 0.04 in1.0 mm
02:35 PM 72.1°F22.3°C 67.7°F19.8°C 86% 4.4 mph WSW7.1 kmh WSW 13.0 mph20.9 kmh 30.05 in1017.6 mb 0.00 in0.0 mm 0.00 in0.0 mm 0.04 in1.0 mm
02:40 PM 72.2°F22.3°C 67.8°F19.9°C 86% 3.7 mph SW6.0 kmh SW 13.0 mph20.9 kmh 30.05 in1017.6 mb 0.00 in0.0 mm 0.00 in0.0 mm 0.04 in1.0 mm
02:45 PM 72.3°F22.4°C 67.9°F19.9°C 86% 3.3 mph WSW5.3 kmh WSW 11.0 mph17.7 kmh 30.05 in1017.6 mb 0.00 in0.0 mm 0.00 in0.0 mm 0.04 in1.0 mm
02:50 PM 72.4°F22.4°C 68.0°F20.0°C 86% 2.2 mph WSW3.5 kmh WSW 11.0 mph17.7 kmh 30.05 in1017.6 mb 0.00 in0.0 mm 0.00 in0.0 mm 0.04 in1.0 mm
02:55 PM 72.5°F22.5°C 67.8°F19.9°C 85% 2.9 mph WSW4.7 kmh WSW 11.0 mph17.7 kmh 30.05 in1017.6 mb 0.00 in0.0 mm 0.00 in0.0 mm 0.04 in1.0 mm
03:00 PM 72.6°F22.6°C 67.5°F19.7°C 84% 2.7 mph SW4.3 kmh SW 11.0 mph17.7 kmh 30.05 in1017.6 mb 0.00 in0.0 mm 0.00 in0.0 mm 0.04 in1.0 mm
03:05 PM 72.6°F22.6°C 67.2°F19.6°C 83% 3.7 mph SW6.0 kmh SW 9.0 mph14.5 kmh 30.05 in1017.6 mb 0.00 in0.0 mm 0.00 in0.0 mm 0.04 in1.0 mm
03:10 PM 72.6°F22.6°C 66.5°F19.2°C 81% 3.2 mph WSW5.1 kmh WSW 8.0 mph12.9 kmh 30.05 in1017.6 mb 0.00 in0.0 mm 0.00 in0.0 mm 0.04 in1.0 mm
03:15 PM 72.6°F22.6°C 65.5°F18.6°C 78% 3.5 mph WSW5.6 kmh WSW 10.0 mph16.1 kmh 30.05 in1017.6 mb 0.00 in0.0 mm 0.00 in0.0 mm 0.04 in1.0 mm
03:20 PM 72.7°F22.6°C 64.5°F18.1°C 75% 3.8 mph WSW6.1 kmh WSW 10.0 mph16.1 kmh 30.05 in1017.6 mb 0.00 in0.0 mm 0.00 in0.0 mm 0.04 in1.0 mm
03:25 PM 72.8°F22.7°C 63.4°F17.4°C 72% 3.7 mph WSW6.0 kmh WSW 13.0 mph20.9 kmh 30.06 in1017.9 mb 0.00 in0.0 mm 0.00 in0.0 mm 0.04 in1.0 mm
03:30 PM 72.9°F22.7°C 62.7°F17.1°C 70% 4.6 mph SW7.4 kmh SW 13.0 mph20.9 kmh 30.05 in1017.6 mb 0.00 in0.0 mm 0.00 in0.0 mm 0.04 in1.0 mm
03:35 PM 72.9°F22.7°C 62.7°F17.1°C 70% 2.7 mph SW4.3 kmh SW 13.0 mph20.9 kmh 30.05 in1017.6 mb 0.00 in0.0 mm 0.00 in0.0 mm 0.04 in1.0 mm
03:40 PM 72.9°F22.7°C 61.7°F16.5°C 68% 3.3 mph SW5.3 kmh SW 11.0 mph17.7 kmh 30.05 in1017.6 mb 0.00 in0.0 mm 0.00 in0.0 mm 0.04 in1.0 mm
03:45 PM 72.7°F22.6°C 61.3°F16.3°C 67% 4.2 mph SW6.8 kmh SW 11.0 mph17.7 kmh 30.05 in1017.6 mb 0.00 in0.0 mm 0.00 in0.0 mm 0.04 in1.0 mm
03:50 PM 72.8°F22.7°C 61.0°F16.1°C 66% 5.6 mph SW9.0 kmh SW 12.0 mph19.3 kmh 30.05 in1017.6 mb 0.00 in0.0 mm 0.00 in0.0 mm 0.04 in1.0 mm
03:55 PM 73.2°F22.9°C 60.9°F16.1°C 65% 3.1 mph WSW5.0 kmh WSW 12.0 mph19.3 kmh 30.05 in1017.6 mb 0.00 in0.0 mm 0.00 in0.0 mm 0.04 in1.0 mm
04:00 PM 73.5°F23.1°C 60.3°F15.7°C 63% 4.3 mph WSW6.9 kmh WSW 12.0 mph19.3 kmh 30.05 in1017.6 mb 0.00 in0.0 mm 0.00 in0.0 mm 0.04 in1.0 mm
04:05 PM 73.9°F23.3°C 60.7°F15.9°C 63% 2.9 mph SW4.7 kmh SW 12.0 mph19.3 kmh 30.05 in1017.6 mb 0.00 in0.0 mm 0.00 in0.0 mm 0.04 in1.0 mm
04:10 PM 74.0°F23.3°C 60.8°F16.0°C 63% 2.2 mph SW3.5 kmh SW 12.0 mph19.3 kmh 30.05 in1017.6 mb 0.00 in0.0 mm 0.00 in0.0 mm 0.04 in1.0 mm
04:15 PM 73.8°F23.2°C 59.5°F15.3°C 61% 4.8 mph SW7.7 kmh SW 12.0 mph19.3 kmh 30.06 in1017.9 mb 0.00 in0.0 mm 0.00 in0.0 mm 0.04 in1.0 mm
04:20 PM 73.3°F22.9°C 59.0°F15.0°C 61% 3.8 mph WSW6.1 kmh WSW 12.0 mph19.3 kmh 30.06 in1017.9 mb 0.00 in0.0 mm 0.00 in0.0 mm 0.04 in1.0 mm
04:25 PM 73.4°F23.0°C 59.3°F15.2°C 61% 3.6 mph WSW5.8 kmh WSW 12.0 mph19.3 kmh 30.06 in1017.9 mb 0.00 in0.0 mm 0.00 in0.0 mm 0.04 in1.0 mm
04:30 PM 73.7°F23.2°C 59.6°F15.3°C 61% 2.4 mph WSW3.9 kmh WSW 11.0 mph17.7 kmh 30.06 in1017.9 mb 0.00 in0.0 mm 0.00 in0.0 mm 0.04 in1.0 mm
04:35 PM 73.9°F23.3°C 59.3°F15.2°C 60% 3.2 mph WSW5.1 kmh WSW 11.0 mph17.7 kmh 30.07 in1018.3 mb 0.00 in0.0 mm 0.00 in0.0 mm 0.04 in1.0 mm
04:40 PM 73.9°F23.3°C 59.8°F15.4°C 61% 2.9 mph WSW4.7 kmh WSW 11.0 mph17.7 kmh 30.07 in1018.3 mb 0.00 in0.0 mm 0.00 in0.0 mm 0.04 in1.0 mm
04:45 PM 73.8°F23.2°C 59.7°F15.4°C 61% 2.4 mph WSW3.9 kmh WSW 8.0 mph12.9 kmh 30.07 in1018.3 mb 0.00 in0.0 mm 0.00 in0.0 mm 0.04 in1.0 mm
04:50 PM 73.7°F23.2°C 59.1°F15.1°C 60% 2.3 mph WSW3.7 kmh WSW 8.0 mph12.9 kmh 30.07 in1018.3 mb 0.00 in0.0 mm 0.00 in0.0 mm 0.04 in1.0 mm
04:55 PM 73.5°F23.1°C 59.4°F15.2°C 61% 3.1 mph WSW5.0 kmh WSW 8.0 mph12.9 kmh 30.07 in1018.3 mb 0.00 in0.0 mm 0.00 in0.0 mm 0.04 in1.0 mm
05:00 PM 73.3°F22.9°C 59.0°F15.0°C 61% 2.2 mph WSW3.5 kmh WSW 6.0 mph9.7 kmh 30.07 in1018.3 mb 0.00 in0.0 mm 0.00 in0.0 mm 0.04 in1.0 mm
05:05 PM 72.9°F22.7°C 58.9°F14.9°C 61% 2.4 mph WSW3.9 kmh WSW 6.0 mph9.7 kmh 30.07 in1018.3 mb 0.00 in0.0 mm 0.00 in0.0 mm 0.04 in1.0 mm
05:10 PM 72.4°F22.4°C 58.8°F14.9°C 62% 2.8 mph WSW4.5 kmh WSW 6.0 mph9.7 kmh 30.07 in1018.3 mb 0.00 in0.0 mm 0.00 in0.0 mm 0.04 in1.0 mm
05:15 PM 72.0°F22.2°C 58.9°F14.9°C 63% 1.2 mph WSW1.9 kmh WSW 6.0 mph9.7 kmh 30.07 in1018.3 mb 0.00 in0.0 mm 0.00 in0.0 mm 0.04 in1.0 mm
05:20 PM 71.6°F22.0°C 59.0°F15.0°C 64% 1.6 mph WSW2.6 kmh WSW 6.0 mph9.7 kmh 30.07 in1018.3 mb 0.00 in0.0 mm 0.00 in0.0 mm 0.04 in1.0 mm
05:25 PM 71.3°F21.8°C 58.7°F14.8°C 64% 2.1 mph WSW3.4 kmh WSW 6.0 mph9.7 kmh 30.08 in1018.6 mb 0.00 in0.0 mm 0.00 in0.0 mm 0.04 in1.0 mm
05:30 PM 71.0°F21.7°C 58.8°F14.9°C 65% 1.0 mph WSW1.6 kmh WSW 5.0 mph8.0 kmh 30.08 in1018.6 mb 0.00 in0.0 mm 0.00 in0.0 mm 0.04 in1.0 mm
05:35 PM 70.6°F21.4°C 58.9°F14.9°C 66% 1.6 mph WSW2.6 kmh WSW 5.0 mph8.0 kmh 30.08 in1018.6 mb 0.00 in0.0 mm 0.00 in0.0 mm 0.04 in1.0 mm
05:40 PM 70.3°F21.3°C 59.0°F15.0°C 67% 1.2 mph WSW1.9 kmh WSW 5.0 mph8.0 kmh 30.08 in1018.6 mb 0.00 in0.0 mm 0.00 in0.0 mm 0.04 in1.0 mm
05:45 PM 70.0°F21.1°C 58.7°F14.8°C 67% 2.3 mph WSW3.7 kmh WSW 4.0 mph6.4 kmh 30.08 in1018.6 mb 0.00 in0.0 mm 0.00 in0.0 mm 0.04 in1.0 mm
05:50 PM 69.7°F20.9°C 58.9°F14.9°C 68% 1.5 mph WSW2.4 kmh WSW 4.0 mph6.4 kmh 30.08 in1018.6 mb 0.00 in0.0 mm 0.00 in0.0 mm 0.04 in1.0 mm
05:55 PM 69.5°F20.8°C 58.7°F14.8°C 68% 1.8 mph WSW2.9 kmh WSW 4.0 mph6.4 kmh 30.08 in1018.6 mb 0.00 in0.0 mm 0.00 in0.0 mm 0.04 in1.0 mm
06:00 PM 69.2°F20.7°C 58.8°F14.9°C 69% 2.3 mph WSW3.7 kmh WSW 5.0 mph8.0 kmh 30.08 in1018.6 mb 0.00 in0.0 mm 0.00 in0.0 mm 0.04 in1.0 mm
06:05 PM 68.9°F20.5°C 58.7°F14.8°C 70% 1.8 mph W2.9 kmh W 5.0 mph8.0 kmh 30.08 in1018.6 mb 0.00 in0.0 mm 0.00 in0.0 mm 0.04 in1.0 mm
06:10 PM 68.6°F20.3°C 58.4°F14.7°C 70% 1.5 mph WSW2.4 kmh WSW 5.0 mph8.0 kmh 30.08 in1018.6 mb 0.00 in0.0 mm 0.00 in0.0 mm 0.04 in1.0 mm
06:14 PM 68.4°F20.2°C 58.6°F14.8°C 71% 1.3 mph WSW2.1 kmh WSW 5.0 mph8.0 kmh 30.09 in1019.0 mb 0.00 in0.0 mm 0.00 in0.0 mm 0.04 in1.0 mm
06:19 PM 68.0°F20.0°C 58.2°F14.6°C 71% 1.9 mph WSW3.1 kmh WSW 4.0 mph6.4 kmh 30.09 in1019.0 mb 0.00 in0.0 mm 0.00 in0.0 mm 0.04 in1.0 mm
06:24 PM 67.7°F19.8°C 58.3°F14.6°C 72% 1.7 mph WSW2.7 kmh WSW 4.0 mph6.4 kmh 30.09 in1019.0 mb 0.00 in0.0 mm 0.00 in0.0 mm 0.04 in1.0 mm
06:29 PM 67.4°F19.7°C 58.2°F14.6°C 72% 1.7 mph WSW2.7 kmh WSW 4.0 mph6.4 kmh 30.10 in1019.3 mb 0.00 in0.0 mm 0.00 in0.0 mm 0.04 in1.0 mm
06:34 PM 67.1°F19.5°C 57.8°F14.3°C 72% 2.3 mph W3.7 kmh W 7.0 mph11.3 kmh 30.10 in1019.3 mb 0.00 in0.0 mm 0.00 in0.0 mm 0.04 in1.0 mm
06:39 PM 66.8°F19.3°C 56.5°F13.6°C 69% 2.4 mph WSW3.9 kmh WSW 8.0 mph12.9 kmh 30.10 in1019.3 mb 0.00 in0.0 mm 0.00 in0.0 mm 0.04 in1.0 mm
06:44 PM 66.7°F19.3°C 56.0°F13.3°C 68% 2.4 mph W3.9 kmh W 8.0 mph12.9 kmh 30.10 in1019.3 mb 0.00 in0.0 mm 0.00 in0.0 mm 0.04 in1.0 mm
06:49 PM 66.4°F19.1°C 55.7°F13.2°C 68% 2.4 mph W3.9 kmh W 8.0 mph12.9 kmh 30.10 in1019.3 mb 0.00 in0.0 mm 0.00 in0.0 mm 0.04 in1.0 mm
06:54 PM 66.1°F18.9°C 54.6°F12.6°C 66% 2.5 mph W4.0 kmh W 8.0 mph12.9 kmh 30.11 in1019.6 mb 0.00 in0.0 mm 0.00 in0.0 mm 0.04 in1.0 mm
06:59 PM 66.0°F18.9°C 54.1°F12.3°C 65% 2.3 mph W3.7 kmh W 7.0 mph11.3 kmh 30.11 in1019.6 mb 0.00 in0.0 mm 0.00 in0.0 mm 0.04 in1.0 mm
07:04 PM 65.9°F18.8°C 53.5°F11.9°C 64% 2.1 mph W3.4 kmh W 7.0 mph11.3 kmh 30.11 in1019.6 mb 0.00 in0.0 mm 0.00 in0.0 mm 0.04 in1.0 mm
07:09 PM 65.6°F18.7°C 51.9°F11.1°C 61% 2.8 mph WSW4.5 kmh WSW 7.0 mph11.3 kmh 30.11 in1019.6 mb 0.00 in0.0 mm 0.00 in0.0 mm 0.04 in1.0 mm
07:14 PM 65.5°F18.6°C 51.4°F10.8°C 60% 3.2 mph W5.1 kmh W 7.0 mph11.3 kmh 30.11 in1019.6 mb 0.00 in0.0 mm 0.00 in0.0 mm 0.04 in1.0 mm
07:19 PM 65.4°F18.6°C 50.8°F10.4°C 59% 2.2 mph W3.5 kmh W 7.0 mph11.3 kmh 30.12 in1020.0 mb 0.00 in0.0 mm 0.00 in0.0 mm 0.04 in1.0 mm
07:24 PM 65.1°F18.4°C 51.0°F10.6°C 60% 1.8 mph W2.9 kmh W 7.0 mph11.3 kmh 30.11 in1019.6 mb 0.00 in0.0 mm 0.00 in0.0 mm 0.04 in1.0 mm
07:29 PM 64.8°F18.2°C 50.7°F10.4°C 60% 2.5 mph W4.0 kmh W 7.0 mph11.3 kmh 30.11 in1019.6 mb 0.00 in0.0 mm 0.00 in0.0 mm 0.04 in1.0 mm
07:34 PM 64.6°F18.1°C 50.5°F10.3°C 60% 2.2 mph WNW3.5 kmh WNW 6.0 mph9.7 kmh 30.12 in1020.0 mb 0.00 in0.0 mm 0.00 in0.0 mm 0.04 in1.0 mm
07:39 PM 64.3°F17.9°C 49.8°F9.9°C 59% 1.9 mph W3.1 kmh W 6.0 mph9.7 kmh 30.12 in1020.0 mb 0.00 in0.0 mm 0.00 in0.0 mm 0.04 in1.0 mm
07:44 PM 64.3°F17.9°C 48.9°F9.4°C 57% 3.1 mph W5.0 kmh W 8.0 mph12.9 kmh 30.12 in1020.0 mb 0.00 in0.0 mm 0.00 in0.0 mm 0.04 in1.0 mm
07:49 PM 64.1°F17.8°C 48.2°F9.0°C 56% 3.3 mph W5.3 kmh W 8.0 mph12.9 kmh 30.13 in1020.3 mb 0.00 in0.0 mm 0.00 in0.0 mm 0.04 in1.0 mm
07:54 PM 64.0°F17.8°C 47.1°F8.4°C 54% 3.8 mph WNW6.1 kmh WNW 8.0 mph12.9 kmh 30.13 in1020.3 mb 0.00 in0.0 mm 0.00 in0.0 mm 0.04 in1.0 mm
07:59 PM 63.9°F17.7°C 46.5°F8.1°C 53% 3.0 mph WNW4.8 kmh WNW 8.0 mph12.9 kmh 30.13 in1020.3 mb 0.00 in0.0 mm 0.00 in0.0 mm 0.04 in1.0 mm
08:04 PM 63.9°F17.7°C 45.5°F7.5°C 51% 2.3 mph WNW3.7 kmh WNW 9.0 mph14.5 kmh 30.13 in1020.3 mb 0.00 in0.0 mm 0.00 in0.0 mm 0.04 in1.0 mm
08:09 PM 63.7°F17.6°C 44.7°F7.1°C 50% 3.5 mph WNW5.6 kmh WNW 9.0 mph14.5 kmh 30.13 in1020.3 mb 0.00 in0.0 mm 0.00 in0.0 mm 0.04 in1.0 mm
08:14 PM 63.5°F17.5°C 43.4°F6.3°C 48% 3.5 mph WNW5.6 kmh WNW 9.0 mph14.5 kmh 30.14 in1020.7 mb 0.00 in0.0 mm 0.00 in0.0 mm 0.04 in1.0 mm
08:19 PM 63.3°F17.4°C 42.7°F5.9°C 47% 4.7 mph WNW7.6 kmh WNW 9.0 mph14.5 kmh 30.14 in1020.7 mb 0.00 in0.0 mm 0.00 in0.0 mm 0.04 in1.0 mm
08:24 PM 63.2°F17.3°C 42.6°F5.9°C 47% 4.0 mph WNW6.4 kmh WNW 8.0 mph12.9 kmh 30.14 in1020.7 mb 0.00 in0.0 mm 0.00 in0.0 mm 0.04 in1.0 mm
08:29 PM 62.9°F17.2°C 41.8°F5.4°C 46% 3.4 mph WNW5.5 kmh WNW 8.0 mph12.9 kmh 30.14 in1020.7 mb 0.00 in0.0 mm 0.00 in0.0 mm 0.04 in1.0 mm
08:34 PM 62.7°F17.1°C 41.6°F5.3°C 46% 3.8 mph WNW6.1 kmh WNW 8.0 mph12.9 kmh 30.14 in1020.7 mb 0.00 in0.0 mm 0.00 in0.0 mm 0.04 in1.0 mm
08:39 PM 62.4°F16.9°C 41.3°F5.2°C 46% 2.8 mph NW4.5 kmh NW 8.0 mph12.9 kmh 30.15 in1021.0 mb 0.00 in0.0 mm 0.00 in0.0 mm 0.04 in1.0 mm
08:44 PM 62.1°F16.7°C 40.4°F4.7°C 45% 2.5 mph NW4.0 kmh NW 8.0 mph12.9 kmh 30.15 in1021.0 mb 0.00 in0.0 mm 0.00 in0.0 mm 0.04 in1.0 mm
08:49 PM 61.7°F16.5°C 40.1°F4.5°C 45% 2.3 mph WNW3.7 kmh WNW 8.0 mph12.9 kmh 30.15 in1021.0 mb 0.00 in0.0 mm 0.00 in0.0 mm 0.04 in1.0 mm
08:54 PM 61.5°F16.4°C 39.9°F4.4°C 45% 2.9 mph WNW4.7 kmh WNW 8.0 mph12.9 kmh 30.15 in1021.0 mb 0.00 in0.0 mm 0.00 in0.0 mm 0.04 in1.0 mm
08:59 PM 61.3°F16.3°C 39.1°F3.9°C 44% 3.6 mph NW5.8 kmh NW 8.0 mph12.9 kmh 30.15 in1021.0 mb 0.00 in0.0 mm 0.00 in0.0 mm 0.04 in1.0 mm
09:04 PM 61.1°F16.2°C 38.3°F3.5°C 43% 3.9 mph WNW6.3 kmh WNW 9.0 mph14.5 kmh 30.15 in1021.0 mb 0.00 in0.0 mm 0.00 in0.0 mm 0.04 in1.0 mm
09:09 PM 60.9°F16.1°C 38.1°F3.4°C 43% 4.3 mph WNW6.9 kmh WNW 9.0 mph14.5 kmh 30.15 in1021.0 mb 0.00 in0.0 mm 0.00 in0.0 mm 0.04 in1.0 mm
09:14 PM 60.7°F15.9°C 37.3°F2.9°C 42% 4.3 mph NW6.9 kmh NW 11.0 mph17.7 kmh 30.16 in1021.3 mb 0.00 in0.0 mm 0.00 in0.0 mm 0.04 in1.0 mm
09:19 PM 60.5°F15.8°C 37.2°F2.9°C 42% 4.8 mph WNW7.7 kmh WNW 11.0 mph17.7 kmh 30.15 in1021.0 mb 0.00 in0.0 mm 0.00 in0.0 mm 0.04 in1.0 mm
09:24 PM 60.2°F15.7°C 36.9°F2.7°C 42% 2.4 mph WNW3.9 kmh WNW 11.0 mph17.7 kmh 30.16 in1021.3 mb 0.00 in0.0 mm 0.00 in0.0 mm 0.04 in1.0 mm
09:29 PM 59.7°F15.4°C 37.0°F2.8°C 43% 2.6 mph NW4.2 kmh NW 11.0 mph17.7 kmh 30.16 in1021.3 mb 0.00 in0.0 mm 0.00 in0.0 mm 0.04 in1.0 mm
09:34 PM 59.4°F15.2°C 36.9°F2.7°C 43% 3.3 mph NW5.3 kmh NW 10.0 mph16.1 kmh 30.16 in1021.3 mb 0.00 in0.0 mm 0.00 in0.0 mm 0.04 in1.0 mm
09:39 PM 59.1°F15.1°C 36.6°F2.6°C 43% 3.5 mph NW5.6 kmh NW 8.0 mph12.9 kmh 30.17 in1021.7 mb 0.00 in0.0 mm 0.00 in0.0 mm 0.04 in1.0 mm
09:45 PM 58.8°F14.9°C 36.8°F2.7°C 44% 3.0 mph NW4.8 kmh NW 8.0 mph12.9 kmh 30.16 in1021.3 mb 0.00 in0.0 mm 0.00 in0.0 mm 0.04 in1.0 mm
09:50 PM 58.6°F14.8°C 36.6°F2.6°C 44% 3.5 mph NW5.6 kmh NW 7.0 mph11.3 kmh 30.17 in1021.7 mb 0.00 in0.0 mm 0.00 in0.0 mm 0.04 in1.0 mm
09:54 PM 58.3°F14.6°C 35.8°F2.1°C 43% 3.1 mph NW5.0 kmh NW 9.0 mph14.5 kmh 30.17 in1021.7 mb 0.00 in0.0 mm 0.00 in0.0 mm 0.04 in1.0 mm
10:00 PM 58.0°F14.4°C 36.1°F2.3°C 44% 3.2 mph NW5.1 kmh NW 9.0 mph14.5 kmh 30.17 in1021.7 mb 0.00 in0.0 mm 0.00 in0.0 mm 0.04 in1.0 mm
10:05 PM 57.6°F14.2°C 36.3°F2.4°C 45% 2.1 mph WNW3.4 kmh WNW 9.0 mph14.5 kmh 30.17 in1021.7 mb 0.00 in0.0 mm 0.00 in0.0 mm 0.04 in1.0 mm
10:10 PM 57.2°F14.0°C 36.0°F2.2°C 45% 2.1 mph WNW3.4 kmh WNW 9.0 mph14.5 kmh 30.17 in1021.7 mb 0.00 in0.0 mm 0.00 in0.0 mm 0.04 in1.0 mm
10:15 PM 56.9°F13.8°C 36.3°F2.4°C 46% 4.0 mph NW6.4 kmh NW 7.0 mph11.3 kmh 30.17 in1021.7 mb 0.00 in0.0 mm 0.00 in0.0 mm 0.04 in1.0 mm
10:20 PM 56.6°F13.7°C 36.0°F2.2°C 46% 3.0 mph NW4.8 kmh NW 7.0 mph11.3 kmh 30.18 in1022.0 mb 0.00 in0.0 mm 0.00 in0.0 mm 0.04 in1.0 mm
10:25 PM 56.3°F13.5°C 35.7°F2.1°C 46% 3.3 mph NW5.3 kmh NW 7.0 mph11.3 kmh 30.18 in1022.0 mb 0.00 in0.0 mm 0.00 in0.0 mm 0.04 in1.0 mm
10:30 PM 56.1°F13.4°C 36.1°F2.3°C 47% 3.4 mph NW5.5 kmh NW 7.0 mph11.3 kmh 30.18 in1022.0 mb 0.00 in0.0 mm 0.00 in0.0 mm 0.04 in1.0 mm
10:35 PM 55.9°F13.3°C 35.9°F2.2°C 47% 4.2 mph NW6.8 kmh NW 7.0 mph11.3 kmh 30.18 in1022.0 mb 0.00 in0.0 mm 0.00 in0.0 mm 0.04 in1.0 mm
10:40 PM 55.8°F13.2°C 35.8°F2.1°C 47% 2.3 mph NW3.7 kmh NW 8.0 mph12.9 kmh 30.18 in1022.0 mb 0.00 in0.0 mm 0.00 in0.0 mm 0.04 in1.0 mm
10:45 PM 55.5°F13.1°C 35.0°F1.7°C 46% 3.2 mph WNW5.1 kmh WNW 8.0 mph12.9 kmh 30.18 in1022.0 mb 0.00 in0.0 mm 0.00 in0.0 mm 0.04 in1.0 mm
10:50 PM 55.4°F13.0°C 34.9°F1.6°C 46% 4.0 mph WNW6.4 kmh WNW 8.0 mph12.9 kmh 30.18 in1022.0 mb 0.00 in0.0 mm 0.00 in0.0 mm 0.04 in1.0 mm
10:55 PM 55.3°F12.9°C 34.2°F1.2°C 45% 2.5 mph WNW4.0 kmh WNW 9.0 mph14.5 kmh 30.19 in1022.4 mb 0.00 in0.0 mm 0.00 in0.0 mm 0.04 in1.0 mm
11:00 PM 55.1°F12.8°C 34.7°F1.5°C 46% 3.3 mph WNW5.3 kmh WNW 9.0 mph14.5 kmh 30.19 in1022.4 mb 0.00 in0.0 mm 0.00 in0.0 mm 0.04 in1.0 mm
11:05 PM 54.8°F12.7°C 34.3°F1.3°C 46% 3.4 mph NW5.5 kmh NW 9.0 mph14.5 kmh 30.19 in1022.4 mb 0.00 in0.0 mm 0.00 in0.0 mm 0.04 in1.0 mm
11:10 PM 54.6°F12.6°C 34.1°F1.2°C 46% 3.0 mph WNW4.8 kmh WNW 9.0 mph14.5 kmh 30.19 in1022.4 mb 0.00 in0.0 mm 0.00 in0.0 mm 0.04 in1.0 mm
11:15 PM 54.4°F12.4°C 34.0°F1.1°C 46% 3.6 mph NW5.8 kmh NW 9.0 mph14.5 kmh 30.19 in1022.4 mb 0.00 in0.0 mm 0.00 in0.0 mm 0.04 in1.0 mm
11:20 PM 54.2°F12.3°C 34.4°F1.3°C 47% 4.4 mph WNW7.1 kmh WNW 9.0 mph14.5 kmh 30.19 in1022.4 mb 0.00 in0.0 mm 0.00 in0.0 mm 0.04 in1.0 mm
11:25 PM 54.1°F12.3°C 33.7°F0.9°C 46% 2.5 mph WNW4.0 kmh WNW 10.0 mph16.1 kmh 30.19 in1022.4 mb 0.00 in0.0 mm 0.00 in0.0 mm 0.04 in1.0 mm
11:30 PM 53.9°F12.2°C 33.5°F0.8°C 46% 4.0 mph WNW6.4 kmh WNW 10.0 mph16.1 kmh 30.19 in1022.4 mb 0.00 in0.0 mm 0.00 in0.0 mm 0.04 in1.0 mm
11:35 PM 53.7°F12.1°C 33.9°F1.1°C 47% 2.8 mph WNW4.5 kmh WNW 10.0 mph16.1 kmh 30.19 in1022.4 mb 0.00 in0.0 mm 0.00 in0.0 mm 0.04 in1.0 mm
11:40 PM 53.5°F11.9°C 33.7°F0.9°C 47% 2.6 mph NW4.2 kmh NW 10.0 mph16.1 kmh 30.19 in1022.4 mb 0.00 in0.0 mm 0.00 in0.0 mm 0.04 in1.0 mm
11:45 PM 53.3°F11.8°C 33.5°F0.8°C 47% 3.9 mph WNW6.3 kmh WNW 10.0 mph16.1 kmh 30.20 in1022.7 mb 0.00 in0.0 mm 0.00 in0.0 mm 0.04 in1.0 mm
11:50 PM 53.2°F11.8°C 33.4°F0.8°C 47% 3.7 mph WNW6.0 kmh WNW 10.0 mph16.1 kmh 30.20 in1022.7 mb 0.00 in0.0 mm 0.00 in0.0 mm 0.04 in1.0 mm
11:55 PM 53.0°F11.7°C 33.2°F0.7°C 47% 2.9 mph WNW4.7 kmh WNW 10.0 mph16.1 kmh 30.20 in1022.7 mb 0.00 in0.0 mm 0.00 in0.0 mm 0.04 in1.0 mm